Time;durP1;ratioP1;P1;durP2;ratioP2;P2;SDS_P1;SDS_P2;PMS_P1;PMS_P2;Temp;Humidity;BMP_temperature;BMP_pressure;BME280_temperature;BME280_humidity;BME280_pressure;Samples;Min_cycle;Max_cycle;Signal;HPM_P1;HPM_P2
2022/11/22 00:02:26;;;;;;;11.80;4.70;;;6.30;36.40;;;;;;5026975;28;20478;-67
2022/11/22 00:04:53;;;;;;;9.47;4.40;;;6.30;36.50;;;;;;5026856;28;20459;-67
2022/11/22 00:07:21;;;;;;;8.30;3.97;;;6.30;36.50;;;;;;5025713;28;21038;-68
2022/11/22 00:09:48;;;;;;;10.90;5.03;;;6.30;36.50;;;;;;5021971;28;20547;-68
2022/11/22 00:12:15;;;;;;;8.23;4.50;;;6.30;36.50;;;;;;5025517;28;20456;-67
2022/11/22 00:14:42;;;;;;;8.07;4.40;;;6.30;36.60;;;;;;5025789;28;20462;-67
2022/11/22 00:17:09;;;;;;;9.37;4.77;;;6.30;36.70;;;;;;5027294;28;20481;-67
2022/11/22 00:19:38;;;;;;;8.03;5.10;;;6.30;36.70;;;;;;5027691;28;20545;-67
2022/11/22 00:22:05;;;;;;;10.10;4.90;;;6.30;36.80;;;;;;5023943;28;20495;-67
2022/11/22 00:24:33;;;;;;;8.60;5.40;;;6.30;36.80;;;;;;5026462;28;20465;-67
2022/11/22 00:27:00;;;;;;;9.80;5.57;;;6.40;36.70;;;;;;5023530;28;20572;-67
2022/11/22 00:29:27;;;;;;;7.60;4.67;;;6.40;36.70;;;;;;5023025;28;21017;-67
2022/11/22 00:31:54;;;;;;;10.80;5.10;;;6.40;36.90;;;;;;5024250;28;20554;-67
2022/11/22 00:34:21;;;;;;;10.43;5.57;;;6.40;36.90;;;;;;5020794;28;20455;-67
2022/11/22 00:36:48;;;;;;;10.87;5.10;;;6.40;36.90;;;;;;5024203;28;20483;-67
2022/11/22 00:39:14;;;;;;;10.00;5.50;;;6.40;36.90;;;;;;5027933;28;20973;-67
2022/11/22 00:41:42;;;;;;;9.97;5.33;;;6.40;37.00;;;;;;5021406;28;20483;-67
2022/11/22 00:44:09;;;;;;;8.10;4.90;;;6.40;37.00;;;;;;5025015;28;20466;-68
2022/11/22 00:46:36;;;;;;;10.50;4.57;;;6.40;37.00;;;;;;5027117;28;20470;-68
2022/11/22 00:49:03;;;;;;;8.53;4.60;;;6.40;37.10;;;;;;5023609;28;20459;-68
2022/11/22 00:51:29;;;;;;;8.30;5.30;;;6.40;37.20;;;;;;5025191;28;20459;-68
2022/11/22 00:53:56;;;;;;;7.83;4.80;;;6.40;37.30;;;;;;5021305;28;20467;-69
2022/11/22 00:56:23;;;;;;;11.37;4.90;;;6.40;37.40;;;;;;5021042;28;20482;-69
2022/11/22 00:58:51;;;;;;;8.40;4.50;;;6.40;37.30;;;;;;5020222;28;20960;-69
2022/11/22 01:01:18;;;;;;;10.60;6.10;;;6.40;37.40;;;;;;5023370;28;20568;-69
2022/11/22 01:03:45;;;;;;;7.77;5.03;;;6.40;37.40;;;;;;5025482;28;21045;-67
2022/11/22 01:06:12;;;;;;;8.20;5.20;;;6.40;37.30;;;;;;5025267;28;20466;-70
2022/11/22 01:08:38;;;;;;;10.03;4.83;;;6.40;37.40;;;;;;5019977;28;20490;-68
2022/11/22 01:11:05;;;;;;;8.50;5.03;;;6.40;37.40;;;;;;5029758;28;20980;-67
2022/11/22 01:13:33;;;;;;;7.73;4.33;;;6.40;37.50;;;;;;5025564;28;20455;-68
2022/11/22 01:16:02;;;;;;;7.73;3.87;;;6.40;37.50;;;;;;5026514;28;20469;-67
2022/11/22 01:18:29;;;;;;;8.60;4.20;;;6.50;37.70;;;;;;5025309;28;20483;-67
2022/11/22 01:20:56;;;;;;;9.90;4.50;;;6.50;37.60;;;;;;5022147;28;20489;-68
2022/11/22 01:23:23;;;;;;;9.47;4.00;;;6.50;37.60;;;;;;5022486;28;20482;-68
2022/11/22 01:25:50;;;;;;;8.00;3.93;;;6.50;37.60;;;;;;5019950;28;20490;-67
2022/11/22 01:28:17;;;;;;;6.50;3.77;;;6.50;37.70;;;;;;5024538;28;20478;-67
2022/11/22 01:30:44;;;;;;;7.13;3.37;;;6.60;37.70;;;;;;5024630;28;20487;-67
2022/11/22 01:33:13;;;;;;;7.80;2.67;;;6.60;37.70;;;;;;5027039;28;20876;-69
2022/11/22 01:35:40;;;;;;;6.30;3.33;;;6.60;37.80;;;;;;5018119;28;20467;-67
2022/11/22 01:38:06;;;;;;;7.73;3.47;;;6.70;38.40;;;;;;5021147;28;20502;-69
2022/11/22 01:40:33;;;;;;;5.93;2.77;;;6.70;37.90;;;;;;5025061;28;20466;-67
2022/11/22 01:43:01;;;;;;;10.20;3.37;;;6.70;38.00;;;;;;5024219;28;20546;-66
2022/11/22 01:45:48;;;;;;;7.37;3.47;;;6.70;37.90;;;;;;5017484;28;20625;-67
2022/11/22 01:48:42;;;;;;;6.30;3.17;;;6.80;38.00;;;;;;5025786;28;20559;-67
2022/11/22 01:51:17;;;;;;;7.80;3.50;;;6.80;38.00;;;;;;5022846;28;20462;-67
2022/11/22 01:53:44;;;;;;;8.43;3.30;;;6.80;37.90;;;;;;5021525;28;20466;-67
2022/11/22 01:56:17;;;;;;;8.73;3.77;;;6.80;38.00;;;;;;5024159;28;20491;-68
2022/11/22 01:58:47;;;;;;;7.27;4.03;;;6.80;38.00;;;;;;5022587;28;20510;-67
2022/11/22 02:01:14;;;;;;;6.57;3.77;;;6.80;38.00;;;;;;5017680;28;21087;-68
2022/11/22 02:03:46;;;;;;;6.30;3.37;;;6.90;38.10;;;;;;5024578;28;20571;-69
2022/11/22 02:06:14;;;;;;;7.07;3.67;;;6.90;38.10;;;;;;5015816;28;20464;-68
2022/11/22 02:08:48;;;;;;;8.73;4.47;;;6.90;38.00;;;;;;5020798;28;20499;-67
2022/11/22 02:11:17;;;;;;;7.23;3.60;;;6.90;37.90;;;;;;5022060;28;20512;-67
2022/11/22 02:13:44;;;;;;;6.50;3.43;;;7.00;37.90;;;;;;5025506;28;20457;-67
2022/11/22 02:16:12;;;;;;;6.97;3.80;;;7.00;37.80;;;;;;5024391;28;20459;-67
2022/11/22 02:18:39;;;;;;;10.70;3.50;;;7.10;37.80;;;;;;5022990;28;20829;-68
2022/11/22 02:21:08;;;;;;;6.90;3.87;;;7.00;37.70;;;;;;5020891;28;20534;-67
2022/11/22 02:23:47;;;;;;;8.13;4.40;;;7.00;37.70;;;;;;5023074;28;20482;-67
2022/11/22 02:26:16;;;;;;;7.30;3.80;;;7.10;37.80;;;;;;5013809;28;20554;-67
2022/11/22 02:28:43;;;;;;;9.00;3.87;;;7.10;37.70;;;;;;5023358;28;20569;-67
2022/11/22 02:31:39;;;;;;;7.53;4.03;;;7.20;37.70;;;;;;5020474;28;20554;-67
2022/11/22 02:34:07;;;;;;;9.43;5.13;;;7.20;37.70;;;;;;5023226;28;20466;-67
2022/11/22 02:36:39;;;;;;;10.53;4.57;;;7.20;37.50;;;;;;5014872;28;20546;-68
2022/11/22 02:39:08;;;;;;;11.00;4.60;;;7.10;37.70;;;;;;5019536;28;20463;-67
2022/11/22 02:41:36;;;;;;;8.30;4.60;;;7.10;37.60;;;;;;5023086;28;21037;-67
2022/11/22 02:44:04;;;;;;;9.30;4.90;;;7.10;37.60;;;;;;5024169;28;20538;-67
2022/11/22 02:46:31;;;;;;;8.73;4.17;;;7.10;37.70;;;;;;5019180;28;20460;-67
2022/11/22 02:48:59;;;;;;;11.03;5.07;;;7.10;37.60;;;;;;5024752;28;20454;-67
2022/11/22 02:51:26;;;;;;;11.47;5.80;;;7.10;37.70;;;;;;5019213;28;20463;-67
2022/11/22 02:53:53;;;;;;;9.53;5.07;;;7.00;38.20;;;;;;5021508;28;20470;-67
2022/11/22 02:56:20;;;;;;;7.70;5.37;;;7.00;37.70;;;;;;5017345;28;21095;-67
2022/11/22 02:58:46;;;;;;;8.50;5.30;;;7.00;37.80;;;;;;5021533;28;20501;-67
2022/11/22 03:01:13;;;;;;;12.23;6.20;;;7.00;37.80;;;;;;5016327;28;20619;-67
2022/11/22 03:03:40;;;;;;;11.13;6.33;;;7.00;37.90;;;;;;5022036;28;20488;-67
2022/11/22 03:06:08;;;;;;;12.67;6.43;;;7.00;37.90;;;;;;5021848;28;20469;-67
2022/11/22 03:08:35;;;;;;;9.13;6.03;;;7.10;37.90;;;;;;5023475;28;20503;-67
2022/11/22 03:11:02;;;;;;;10.37;5.63;;;7.10;37.90;;;;;;5016790;28;20466;-68
2022/11/22 03:13:29;;;;;;;9.43;5.50;;;7.00;37.80;;;;;;5022460;28;20456;-67
2022/11/22 03:15:56;;;;;;;11.77;5.90;;;7.00;38.40;;;;;;5022074;28;21026;-68
2022/11/22 03:18:23;;;;;;;8.83;5.27;;;7.00;37.90;;;;;;5019629;28;21069;-67
2022/11/22 03:20:49;;;;;;;9.83;5.90;;;7.10;37.90;;;;;;5025239;28;20465;-68
2022/11/22 03:23:18;;;;;;;16.70;6.60;;;7.10;38.00;;;;;;5026710;28;20490;-68
2022/11/22 03:25:44;;;;;;;9.37;5.53;;;7.10;38.10;;;;;;5026850;28;20467;-68
2022/11/22 03:28:11;;;;;;;9.80;6.20;;;7.10;38.00;;;;;;5021228;28;20478;-68
2022/11/22 03:30:42;;;;;;;9.00;6.03;;;7.10;38.00;;;;;;5020011;28;20489;-68
2022/11/22 03:33:09;;;;;;;8.73;5.73;;;7.10;38.20;;;;;;5018989;28;20464;-67
2022/11/22 03:35:35;;;;;;;15.77;6.00;;;7.00;38.10;;;;;;5024078;28;20462;-67
2022/11/22 03:38:03;;;;;;;12.30;6.40;;;7.00;38.30;;;;;;5023834;28;20491;-69
2022/11/22 03:40:31;;;;;;;10.77;5.93;;;7.00;38.30;;;;;;5023965;28;20559;-66
2022/11/22 03:43:00;;;;;;;10.97;5.53;;;7.00;38.40;;;;;;5023256;28;20483;-69
2022/11/22 03:45:27;;;;;;;9.03;6.17;;;7.00;38.40;;;;;;5025691;28;20459;-68
2022/11/22 03:47:55;;;;;;;11.60;6.43;;;7.00;38.40;;;;;;5024172;28;20483;-68
2022/11/22 03:50:22;;;;;;;9.60;6.30;;;7.00;38.50;;;;;;5023685;28;21037;-67
2022/11/22 03:52:49;;;;;;;9.73;6.20;;;6.90;38.50;;;;;;5027403;28;20467;-67
2022/11/22 03:55:16;;;;;;;9.20;5.87;;;6.90;38.70;;;;;;5025298;28;20997;-67
2022/11/22 03:57:44;;;;;;;10.80;5.63;;;6.90;38.70;;;;;;5024789;28;20575;-67
2022/11/22 04:00:12;;;;;;;12.37;6.70;;;6.90;38.80;;;;;;5021790;28;20550;-67
2022/11/22 04:02:39;;;;;;;12.20;6.47;;;6.90;38.80;;;;;;5024304;28;20479;-67
2022/11/22 04:05:07;;;;;;;12.30;7.13;;;6.90;38.90;;;;;;5024271;28;20509;-67
2022/11/22 04:07:34;;;;;;;9.40;6.07;;;6.80;38.80;;;;;;4985722;28;1178573;-67
2022/11/22 04:10:00;;;;;;;11.93;6.10;;;6.80;38.80;;;;;;5022564;28;20205;-67
2022/11/22 04:12:29;;;;;;;9.73;6.10;;;6.80;38.90;;;;;;5016493;28;20547;-67
2022/11/22 04:15:05;;;;;;;14.10;6.93;;;6.80;38.90;;;;;;5021353;28;20455;-67
2022/11/22 04:17:43;;;;;;;10.83;6.70;;;6.70;39.00;;;;;;5025771;28;20479;-68
2022/11/22 04:22:57;;;;;;;12.43;6.73;;;6.70;39.00;;;;;;5019156;28;20552;-69
2022/11/22 04:25:23;;;;;;;11.20;7.50;;;6.70;39.10;;;;;;5025428;28;20454;-68
2022/11/22 04:27:51;;;;;;;14.30;7.87;;;6.70;39.20;;;;;;5022504;28;21258;-68
2022/11/22 04:30:19;;;;;;;11.37;6.70;;;6.70;39.20;;;;;;5022074;28;20539;-69
2022/11/22 04:32:45;;;;;;;12.73;7.60;;;6.60;39.40;;;;;;5025355;28;20588;-67
2022/11/22 04:35:14;;;;;;;13.13;7.03;;;6.60;39.40;;;;;;5022772;28;20497;-67
2022/11/22 04:37:41;;;;;;;15.70;8.10;;;6.60;39.40;;;;;;5026347;28;20478;-68
2022/11/22 04:40:10;;;;;;;12.83;7.67;;;6.60;39.50;;;;;;5023764;28;20538;-67
2022/11/22 04:45:23;;;;;;;14.73;8.40;;;6.50;39.50;;;;;;5021347;28;20462;-68
2022/11/22 04:47:58;;;;;;;12.53;7.60;;;6.50;39.80;;;;;;5025455;28;20475;-68
2022/11/22 04:53:11;;;;;;;12.27;6.60;;;6.50;39.80;;;;;;5019787;28;20981;-69
2022/11/22 04:55:38;;;;;;;12.77;7.00;;;6.50;39.80;;;;;;5020724;28;21288;-69
2022/11/22 04:58:05;;;;;;;12.03;6.80;;;6.50;40.00;;;;;;5021023;28;20574;-69
2022/11/22 05:00:33;;;;;;;14.17;7.90;;;6.50;40.10;;;;;;5023565;28;20498;-69
2022/11/22 05:03:00;;;;;;;15.73;8.20;;;6.50;40.00;;;;;;5016096;28;20562;-68
2022/11/22 05:05:27;;;;;;;14.90;7.60;;;6.40;40.20;;;;;;5021992;28;21173;-68
2022/11/22 05:07:55;;;;;;;13.50;8.30;;;6.50;40.40;;;;;;5019463;28;20577;-68
2022/11/22 05:10:22;;;;;;;11.53;7.50;;;6.50;40.60;;;;;;5021160;28;20550;-68
2022/11/22 05:12:49;;;;;;;12.77;7.23;;;6.50;41.10;;;;;;5016552;28;20452;-68
2022/11/22 05:15:16;;;;;;;12.70;6.80;;;6.50;41.20;;;;;;5016848;28;20542;-68
2022/11/22 05:17:44;;;;;;;13.33;7.97;;;6.50;41.20;;;;;;5021386;28;20506;-68
2022/11/22 05:20:11;;;;;;;11.70;7.30;;;6.50;41.30;;;;;;5021964;28;20923;-68
2022/11/22 05:25:22;;;;;;;12.60;6.77;;;6.40;41.40;;;;;;4981544;28;20455;-68
2022/11/22 05:27:53;;;;;;;12.50;7.30;;;6.40;41.40;;;;;;5018715;28;20484;-68
2022/11/22 05:30:20;;;;;;;13.37;7.67;;;6.40;41.50;;;;;;5018363;28;20966;-66
2022/11/22 05:32:48;;;;;;;12.63;6.97;;;6.40;41.80;;;;;;5021101;28;20551;-68
2022/11/22 05:35:15;;;;;;;12.70;6.83;;;6.40;41.60;;;;;;5018427;28;20506;-69
2022/11/22 05:37:42;;;;;;;12.00;7.30;;;6.40;41.60;;;;;;5021727;28;20559;-68
2022/11/22 05:40:11;;;;;;;11.77;6.90;;;6.40;41.80;;;;;;5018841;28;20538;-63
2022/11/22 05:42:38;;;;;;;11.60;6.63;;;6.40;41.90;;;;;;5026212;28;20554;-66
2022/11/22 05:45:05;;;;;;;12.97;7.50;;;6.40;41.70;;;;;;5012818;28;20495;-65
2022/11/22 05:47:34;;;;;;;14.00;7.70;;;6.40;41.80;;;;;;5017308;28;20928;-66
2022/11/22 05:50:02;;;;;;;11.00;7.37;;;6.40;41.80;;;;;;5020150;28;20538;-65
2022/11/22 05:52:29;;;;;;;12.43;7.83;;;6.40;41.80;;;;;;5024189;28;20462;-65
2022/11/22 05:54:56;;;;;;;11.50;7.50;;;6.40;41.70;;;;;;5018201;28;20478;-64
2022/11/22 05:57:23;;;;;;;11.13;7.60;;;6.40;41.70;;;;;;5024507;28;21296;-65
2022/11/22 05:59:50;;;;;;;11.77;7.60;;;6.40;41.70;;;;;;5023218;28;20464;-65
2022/11/22 06:02:17;;;;;;;13.50;7.67;;;6.40;41.50;;;;;;5019772;28;20485;-65
2022/11/22 06:04:44;;;;;;;13.70;7.50;;;6.40;41.50;;;;;;5022325;28;20887;-65
2022/11/22 06:07:12;;;;;;;13.83;8.20;;;6.30;41.50;;;;;;5020897;28;20586;-65
2022/11/22 06:09:39;;;;;;;12.17;7.23;;;6.40;41.60;;;;;;5015432;28;20491;-65
2022/11/22 06:12:06;;;;;;;16.17;8.47;;;6.40;41.60;;;;;;5024062;28;20478;-64
2022/11/22 06:14:33;;;;;;;13.97;7.27;;;6.40;41.60;;;;;;5014174;28;20459;-64
2022/11/22 06:17:00;;;;;;;10.70;7.47;;;6.40;41.60;;;;;;5021930;28;20485;-64
2022/11/22 06:19:27;;;;;;;15.30;7.67;;;6.40;41.30;;;;;;5017072;28;21560;-64
2022/11/22 06:21:54;;;;;;;12.80;7.40;;;6.30;41.50;;;;;;5025380;28;20460;-63
2022/11/22 06:24:22;;;;;;;14.40;8.20;;;6.30;41.50;;;;;;5016279;28;21007;-63
2022/11/22 06:26:49;;;;;;;11.27;7.00;;;6.30;41.50;;;;;;5018554;28;20475;-63
2022/11/22 06:29:16;;;;;;;13.03;7.77;;;6.30;41.40;;;;;;5019156;28;20455;-63
2022/11/22 06:31:42;;;;;;;13.50;8.00;;;6.30;41.50;;;;;;5030203;28;20481;-63
2022/11/22 06:34:12;;;;;;;11.73;7.27;;;6.30;41.60;;;;;;5024686;28;20455;-63
2022/11/22 06:36:39;;;;;;;11.80;7.50;;;6.30;41.70;;;;;;5021580;28;20462;-63
2022/11/22 06:39:06;;;;;;;13.67;7.40;;;6.30;41.70;;;;;;5015876;28;20458;-63
2022/11/22 06:41:36;;;;;;;12.30;7.40;;;6.40;41.80;;;;;;5021195;28;20456;-63
2022/11/22 06:44:06;;;;;;;14.43;8.03;;;6.50;41.90;;;;;;5025415;28;20489;-63
2022/11/22 06:46:33;;;;;;;13.50;7.03;;;6.50;41.80;;;;;;5024177;28;20462;-63
2022/11/22 06:49:00;;;;;;;12.47;7.73;;;6.50;41.80;;;;;;5020040;28;20454;-61
2022/11/22 06:51:28;;;;;;;13.30;7.90;;;6.60;41.90;;;;;;5019564;28;20459;-61
2022/11/22 06:53:56;;;;;;;18.13;7.40;;;6.60;41.80;;;;;;5022649;28;20487;-60
2022/11/22 06:56:26;;;;;;;11.83;7.00;;;6.60;41.70;;;;;;5019596;28;20471;-62
2022/11/22 06:58:54;;;;;;;12.50;7.40;;;6.60;41.70;;;;;;5025876;28;21052;-61
2022/11/22 07:01:23;;;;;;;12.03;6.23;;;6.70;41.80;;;;;;5027063;28;20485;-62
2022/11/22 07:03:50;;;;;;;12.87;7.13;;;6.70;41.60;;;;;;5023769;28;20562;-60
2022/11/22 07:06:19;;;;;;;12.67;7.00;;;6.80;41.60;;;;;;5021633;28;20459;-61
2022/11/22 07:08:46;;;;;;;10.47;6.37;;;6.80;41.40;;;;;;5016300;28;20506;-71
2022/11/22 07:11:15;;;;;;;10.83;7.20;;;6.80;41.50;;;;;;5023163;28;20459;-68
2022/11/22 07:13:42;;;;;;;12.83;7.20;;;6.90;41.80;;;;;;5022124;28;20454;-69
2022/11/22 07:16:12;;;;;;;13.10;7.07;;;6.90;41.50;;;;;;5027814;28;20454;-67
2022/11/22 07:18:39;;;;;;;14.90;6.60;;;6.90;41.60;;;;;;5021801;28;21035;-60
2022/11/22 07:21:07;;;;;;;10.97;7.00;;;6.90;41.80;;;;;;5026374;28;20455;-62
2022/11/22 07:23:34;;;;;;;10.33;5.97;;;6.90;41.40;;;;;;5024948;28;20486;-63
2022/11/22 07:26:01;;;;;;;10.90;6.73;;;7.00;41.20;;;;;;5024546;28;20489;-63
2022/11/22 07:28:28;;;;;;;12.30;7.57;;;7.00;41.00;;;;;;5021826;28;20475;-62
2022/11/22 07:30:59;;;;;;;13.83;7.90;;;7.00;41.10;;;;;;5021946;28;20479;-64
2022/11/22 07:33:27;;;;;;;12.30;7.20;;;7.10;41.10;;;;;;5018683;28;20469;-64
2022/11/22 07:35:54;;;;;;;10.50;6.97;;;7.10;40.80;;;;;;5024592;28;20458;-65
2022/11/22 07:38:21;;;;;;;14.33;6.77;;;7.10;41.00;;;;;;5024933;28;20537;-63
2022/11/22 07:40:47;;;;;;;15.30;7.17;;;7.20;40.60;;;;;;5022235;28;20920;-67
2022/11/22 07:43:14;;;;;;;13.23;6.90;;;7.20;40.50;;;;;;5023661;28;20521;-66
2022/11/22 07:45:41;;;;;;;12.07;6.13;;;7.20;40.50;;;;;;5021967;28;20475;-65
2022/11/22 07:48:09;;;;;;;11.83;7.20;;;7.30;40.60;;;;;;5020558;28;20478;-68
2022/11/22 07:50:37;;;;;;;11.63;6.37;;;7.30;40.40;;;;;;5022020;28;20462;-64
2022/11/22 07:53:04;;;;;;;13.00;6.20;;;7.40;40.30;;;;;;5019449;28;20470;-65
2022/11/22 07:55:30;;;;;;;10.33;5.90;;;7.40;40.10;;;;;;5023499;28;21242;-62
2022/11/22 07:57:59;;;;;;;13.77;7.07;;;7.40;40.00;;;;;;5023133;28;20497;-63
2022/11/22 08:00:27;;;;;;;9.73;6.00;;;7.50;40.00;;;;;;5025253;28;20455;-68
2022/11/22 08:02:53;;;;;;;12.90;6.37;;;7.50;39.90;;;;;;5022806;28;20490;-65
2022/11/22 08:05:21;;;;;;;12.53;6.20;;;7.60;39.70;;;;;;5026492;28;21017;-66
2022/11/22 08:07:50;;;;;;;12.07;7.20;;;7.60;39.70;;;;;;5024986;28;20490;-64
2022/11/22 08:10:18;;;;;;;13.53;6.70;;;7.70;39.60;;;;;;5026326;28;20463;-67
2022/11/22 08:12:45;;;;;;;13.37;7.40;;;7.70;39.70;;;;;;5022898;28;21012;-65
2022/11/22 08:15:13;;;;;;;13.87;7.00;;;7.70;39.40;;;;;;5020644;28;20451;-68
2022/11/22 08:17:40;;;;;;;11.80;6.90;;;7.80;39.30;;;;;;5020276;28;20483;-66
2022/11/22 08:20:09;;;;;;;13.07;5.97;;;7.80;38.90;;;;;;5024212;28;20824;-68
2022/11/22 08:22:35;;;;;;;14.10;6.53;;;7.90;38.90;;;;;;5022673;28;20464;-66
2022/11/22 08:25:06;;;;;;;12.83;6.30;;;7.90;38.80;;;;;;5022654;28;20834;-65
2022/11/22 08:27:33;;;;;;;11.80;6.03;;;7.90;38.70;;;;;;5025602;28;20478;-68
2022/11/22 08:30:00;;;;;;;10.77;6.23;;;7.90;38.50;;;;;;5019239;28;20460;-67
2022/11/22 08:32:26;;;;;;;13.73;6.47;;;8.00;38.40;;;;;;5022170;28;20470;-68
2022/11/22 08:34:53;;;;;;;11.43;6.43;;;8.00;38.30;;;;;;5022654;28;20455;-68
2022/11/22 08:37:20;;;;;;;12.27;7.20;;;8.10;38.40;;;;;;5021269;28;20491;-65
2022/11/22 08:39:47;;;;;;;11.70;6.80;;;8.10;38.20;;;;;;5022494;28;21000;-69
2022/11/22 08:42:15;;;;;;;10.97;6.70;;;8.10;38.30;;;;;;5025183;28;20971;-70
2022/11/22 08:44:41;;;;;;;10.77;6.90;;;8.20;37.90;;;;;;5023985;28;21026;-69
2022/11/22 08:47:08;;;;;;;13.73;7.13;;;8.20;37.90;;;;;;5019130;28;20491;-66
2022/11/22 08:49:35;;;;;;;9.50;6.33;;;8.30;37.80;;;;;;5016839;28;20459;-67
2022/11/22 08:52:02;;;;;;;11.47;6.10;;;8.40;37.50;;;;;;5023109;28;20459;-68
2022/11/22 08:54:28;;;;;;;11.20;5.20;;;8.40;37.40;;;;;;5020188;28;20459;-65
2022/11/22 08:56:55;;;;;;;13.00;6.90;;;8.50;37.80;;;;;;5017888;28;20488;-65
2022/11/22 08:59:24;;;;;;;14.50;5.90;;;8.50;37.20;;;;;;5018798;28;20470;-66
2022/11/22 09:01:50;;;;;;;11.90;6.27;;;8.50;36.90;;;;;;5024891;28;20487;-69
2022/11/22 09:04:17;;;;;;;9.43;5.70;;;8.50;36.90;;;;;;5027731;28;20474;-70
2022/11/22 09:06:44;;;;;;;13.50;7.30;;;8.60;36.80;;;;;;5021904;28;20460;-64
2022/11/22 09:09:11;;;;;;;15.33;6.73;;;8.60;36.60;;;;;;5022185;28;21155;-63
2022/11/22 09:11:37;;;;;;;11.77;6.80;;;8.60;36.50;;;;;;5025810;28;20460;-63
2022/11/22 09:14:04;;;;;;;10.27;6.43;;;8.60;36.30;;;;;;5024663;28;20994;-63
2022/11/22 09:16:32;;;;;;;11.37;6.40;;;8.70;36.30;;;;;;5023450;28;20485;-63
2022/11/22 09:18:59;;;;;;;13.17;6.57;;;8.70;36.30;;;;;;5016315;28;20833;-63
2022/11/22 09:21:26;;;;;;;13.27;5.23;;;8.70;36.10;;;;;;5021073;28;20566;-65
2022/11/22 09:23:53;;;;;;;12.30;6.50;;;8.70;36.20;;;;;;5018418;28;20483;-65
2022/11/22 09:26:21;;;;;;;13.03;6.03;;;8.70;36.20;;;;;;5020745;28;20456;-65
2022/11/22 09:28:48;;;;;;;9.33;6.07;;;8.70;36.10;;;;;;5024942;28;20490;-65
2022/11/22 09:31:18;;;;;;;14.37;5.50;;;8.80;36.00;;;;;;5019495;28;20483;-64
2022/11/22 09:33:48;;;;;;;9.57;4.50;;;8.80;36.00;;;;;;5019113;28;20463;-63
2022/11/22 09:36:16;;;;;;;8.93;5.53;;;8.80;35.80;;;;;;5019353;28;20966;-64
2022/11/22 09:38:43;;;;;;;10.33;4.97;;;8.80;35.80;;;;;;5020471;28;20486;-64
2022/11/22 09:41:39;;;;;;;11.27;5.57;;;8.90;35.70;;;;;;5015625;28;20967;-64
2022/11/22 09:44:13;;;;;;;7.73;4.83;;;8.90;35.40;;;;;;5022067;28;20486;-63
2022/11/22 09:46:48;;;;;;;10.60;4.67;;;8.90;35.30;;;;;;5018079;28;20467;-62
2022/11/22 09:49:26;;;;;;;12.00;4.60;;;8.80;35.30;;;;;;5023295;28;20809;-62
2022/11/22 09:51:59;;;;;;;9.33;4.57;;;8.90;35.20;;;;;;5020980;28;20466;-62
2022/11/22 09:54:30;;;;;;;10.77;4.30;;;8.90;35.20;;;;;;5021570;28;20462;-63
2022/11/22 09:57:01;;;;;;;11.07;3.80;;;8.90;35.30;;;;;;5023714;28;21069;-63
2022/11/22 09:59:32;;;;;;;8.53;4.23;;;8.80;35.40;;;;;;5025265;28;20455;-64
2022/11/22 10:02:04;;;;;;;8.60;4.40;;;8.80;35.50;;;;;;5023067;28;20487;-63
2022/11/22 10:04:38;;;;;;;20.10;4.30;;;8.90;35.40;;;;;;5022764;28;20479;-67
2022/11/22 10:07:11;;;;;;;9.57;4.53;;;8.90;35.30;;;;;;5017221;28;20483;-68
2022/11/22 10:09:43;;;;;;;10.40;3.60;;;8.90;35.40;;;;;;5020047;28;21002;-63
2022/11/22 10:12:15;;;;;;;12.37;4.40;;;9.00;35.40;;;;;;5019229;28;21041;-64
2022/11/22 10:14:50;;;;;;;7.83;3.03;;;9.00;35.20;;;;;;5016936;28;20492;-63
2022/11/22 10:17:25;;;;;;;11.20;3.90;;;9.10;34.80;;;;;;5017511;28;20569;-66
2022/11/22 10:20:03;;;;;;;12.23;3.67;;;9.10;34.50;;;;;;5023515;28;20993;-64
2022/11/22 10:22:30;;;;;;;9.30;3.33;;;9.10;34.50;;;;;;5023654;28;20465;-65
2022/11/22 10:24:59;;;;;;;15.63;4.37;;;9.20;34.30;;;;;;5021337;28;20510;-64
2022/11/22 10:27:31;;;;;;;11.97;2.97;;;9.20;34.10;;;;;;5021571;28;20494;-65
2022/11/22 10:30:02;;;;;;;8.57;3.27;;;9.20;34.10;;;;;;5022974;28;20898;-65
2022/11/22 10:32:37;;;;;;;11.73;4.33;;;9.20;34.00;;;;;;5018790;28;20478;-64
2022/11/22 10:35:28;;;;;;;8.90;3.03;;;9.30;33.50;;;;;;5021266;28;20455;-64
2022/11/22 10:38:02;;;;;;;12.37;3.30;;;9.30;33.60;;;;;;5016823;28;20489;-65
2022/11/22 10:40:37;;;;;;;9.80;3.00;;;9.30;33.40;;;;;;5018472;28;20451;-65
2022/11/22 10:43:26;;;;;;;8.33;2.70;;;9.30;33.40;;;;;;5023429;28;20930;-64
2022/11/22 10:46:01;;;;;;;15.43;3.53;;;9.30;33.00;;;;;;5024077;28;20490;-63
2022/11/22 10:48:35;;;;;;;12.17;3.50;;;9.30;32.80;;;;;;5016724;28;21302;-63
2022/11/22 10:51:14;;;;;;;12.23;2.90;;;9.30;32.70;;;;;;5024419;28;20463;-62
2022/11/22 10:53:55;;;;;;;8.80;2.43;;;9.30;32.80;;;;;;5022836;28;20482;-66
2022/11/22 10:56:30;;;;;;;7.30;2.33;;;9.30;32.20;;;;;;5020051;28;20460;-63
2022/11/22 10:59:16;;;;;;;10.90;2.47;;;9.40;32.30;;;;;;5015533;28;20469;-63
2022/11/22 11:01:52;;;;;;;9.97;2.50;;;9.30;32.20;;;;;;5019931;28;20479;-65
2022/11/22 11:04:20;;;;;;;9.70;2.30;;;9.40;31.80;;;;;;5011740;28;20486;-65
2022/11/22 11:06:54;;;;;;;7.43;2.23;;;9.40;31.30;;;;;;5021139;28;20494;-67
2022/11/22 11:09:25;;;;;;;7.37;1.73;;;9.40;31.30;;;;;;5017415;28;20460;-66
2022/11/22 11:11:53;;;;;;;9.17;2.07;;;9.50;30.80;;;;;;5018687;28;20456;-62
2022/11/22 11:14:27;;;;;;;10.00;3.50;;;9.50;30.80;;;;;;5019208;28;20490;-63
2022/11/22 11:16:55;;;;;;;12.63;5.73;;;9.50;30.50;;;;;;5025403;28;20478;-69
2022/11/22 11:19:24;;;;;;;11.93;5.50;;;9.50;30.20;;;;;;5017096;28;20451;-71
2022/11/22 11:21:59;;;;;;;14.47;7.43;;;9.50;30.50;;;;;;5015840;28;20468;-70
2022/11/22 11:24:29;;;;;;;8.70;3.50;;;9.60;30.20;;;;;;5019010;28;20528;-70
2022/11/22 11:26:58;;;;;;;12.00;3.90;;;9.60;29.80;;;;;;5018944;28;20487;-66
2022/11/22 11:29:39;;;;;;;10.27;3.73;;;9.70;29.00;;;;;;5021991;28;20462;-68
2022/11/22 11:32:11;;;;;;;7.93;2.40;;;9.70;28.70;;;;;;5022249;28;20485;-64
2022/11/22 11:34:40;;;;;;;9.23;2.93;;;9.70;28.70;;;;;;5023926;28;20465;-67
2022/11/22 11:37:18;;;;;;;7.93;1.93;;;9.70;29.00;;;;;;5025214;28;20483;-67
2022/11/22 11:39:46;;;;;;;9.10;2.43;;;9.70;28.80;;;;;;5026315;28;20469;-65
2022/11/22 11:42:26;;;;;;;9.80;2.27;;;9.80;28.60;;;;;;5027054;28;20470;-68
2022/11/22 11:44:53;;;;;;;9.40;1.93;;;9.80;27.70;;;;;;5017042;28;21051;-66
2022/11/22 11:47:31;;;;;;;6.60;2.10;;;9.80;27.40;;;;;;5020137;28;20478;-64
2022/11/22 11:49:58;;;;;;;7.23;2.00;;;9.80;27.90;;;;;;5026573;28;20466;-67
2022/11/22 11:52:28;;;;;;;6.07;1.90;;;9.80;27.60;;;;;;5017373;28;20459;-65
2022/11/22 11:54:57;;;;;;;8.50;1.97;;;9.80;27.30;;;;;;5025213;28;20494;-66
2022/11/22 11:57:28;;;;;;;9.37;1.80;;;9.80;27.00;;;;;;5020212;28;20490;-64
2022/11/22 11:59:57;;;;;;;6.63;1.73;;;9.80;27.20;;;;;;5022701;28;20460;-67
2022/11/22 12:02:27;;;;;;;8.00;2.00;;;9.80;26.80;;;;;;5020731;28;20482;-66
2022/11/22 12:04:57;;;;;;;10.27;2.30;;;9.80;26.90;;;;;;5022178;28;20513;-68
2022/11/22 12:07:27;;;;;;;10.13;1.80;;;9.80;26.80;;;;;;5016994;28;20574;-67
2022/11/22 12:09:55;;;;;;;8.37;1.13;;;9.80;26.40;;;;;;5020532;28;20801;-67
2022/11/22 12:12:40;;;;;;;5.40;2.33;;;9.80;25.80;;;;;;5012750;28;20466;-67
2022/11/22 12:15:15;;;;;;;8.47;2.07;;;9.80;25.80;;;;;;5027174;28;20459;-70
2022/11/22 12:17:48;;;;;;;8.97;1.80;;;9.80;25.30;;;;;;5021180;28;20482;-68
2022/11/22 12:20:20;;;;;;;7.70;1.50;;;9.70;25.20;;;;;;5024359;28;20472;-68
2022/11/22 12:22:58;;;;;;;14.73;2.90;;;9.70;25.40;;;;;;5017989;28;20550;-64
2022/11/22 12:25:32;;;;;;;8.53;2.17;;;9.70;25.50;;;;;;5022135;28;20858;-70
2022/11/22 12:28:03;;;;;;;10.23;1.93;;;9.70;25.50;;;;;;5018998;28;20488;-62
2022/11/22 12:30:32;;;;;;;7.47;1.53;;;9.70;25.80;;;;;;5021800;28;20494;-62
2022/11/22 12:33:03;;;;;;;10.23;3.87;;;9.70;25.40;;;;;;5016805;28;20473;-63
2022/11/22 12:35:40;;;;;;;8.83;1.80;;;9.70;25.10;;;;;;5026206;28;20462;-63
2022/11/22 12:38:15;;;;;;;5.50;1.30;;;9.60;24.60;;;;;;5027821;28;20506;-63
2022/11/22 12:40:43;;;;;;;11.87;2.90;;;9.60;24.50;;;;;;5023376;28;20468;-63
2022/11/22 12:43:17;;;;;;;5.63;1.70;;;9.60;24.70;;;;;;5020176;28;20962;-65
2022/11/22 12:45:48;;;;;;;9.80;1.40;;;9.50;24.80;;;;;;5030178;28;20482;-64
2022/11/22 12:48:18;;;;;;;8.80;1.93;;;9.50;25.20;;;;;;5017914;28;20486;-61
2022/11/22 12:50:48;;;;;;;8.67;1.80;;;9.50;25.40;;;;;;5019454;28;20485;-61
2022/11/22 12:53:22;;;;;;;10.70;2.73;;;9.50;25.60;;;;;;5022298;28;20839;-62
2022/11/22 12:55:54;;;;;;;10.33;1.63;;;9.50;25.80;;;;;;5020159;28;20452;-61
2022/11/22 12:58:27;;;;;;;5.17;1.10;;;9.50;25.90;;;;;;5016965;28;20862;-62
2022/11/22 13:01:04;;;;;;;8.53;1.57;;;9.50;24.70;;;;;;5025423;28;20478;-62
2022/11/22 13:03:38;;;;;;;6.67;1.30;;;9.50;24.60;;;;;;5024865;28;20459;-62
2022/11/22 13:06:08;;;;;;;7.47;1.53;;;9.40;23.70;;;;;;5019940;28;20484;-63
2022/11/22 13:08:42;;;;;;;6.13;1.53;;;9.40;23.40;;;;;;5023467;28;20493;-63
2022/11/22 13:11:15;;;;;;;7.20;1.27;;;9.30;23.40;;;;;;5020906;28;20463;-60
2022/11/22 13:13:45;;;;;;;10.77;1.30;;;9.30;23.80;;;;;;5014878;28;20467;-62